sensor_id;sensor_type;location;lat;lon;timestamp;temperature;humidity
13409;DHT22;6775;49.574;11.170;2022-12-13T00:01:29;-6.80;99.90
13409;DHT22;6775;49.574;11.170;2022-12-13T00:03:58;-6.80;99.90
13409;DHT22;6775;49.574;11.170;2022-12-13T00:06:27;-6.70;99.90
13409;DHT22;6775;49.574;11.170;2022-12-13T00:08:56;-6.50;99.90
13409;DHT22;6775;49.574;11.170;2022-12-13T00:11:25;-6.30;99.90
13409;DHT22;6775;49.574;11.170;2022-12-13T00:13:54;-6.40;99.90
13409;DHT22;6775;49.574;11.170;2022-12-13T00:16:25;-6.40;99.90
13409;DHT22;6775;49.574;11.170;2022-12-13T00:18:54;-6.50;99.90
13409;DHT22;6775;49.574;11.170;2022-12-13T00:21:24;-6.60;99.90
13409;DHT22;6775;49.574;11.170;2022-12-13T00:23:52;-6.60;99.90
13409;DHT22;6775;49.574;11.170;2022-12-13T00:26:22;-6.70;99.90
13409;DHT22;6775;49.574;11.170;2022-12-13T00:28:50;-6.70;99.90
13409;DHT22;6775;49.574;11.170;2022-12-13T00:31:22;-6.70;99.90
13409;DHT22;6775;49.574;11.170;2022-12-13T00:34:11;-6.80;99.90
13409;DHT22;6775;49.574;11.170;2022-12-13T00:36:39;-7.00;99.90
13409;DHT22;6775;49.574;11.170;2022-12-13T00:39:07;-7.10;99.90
13409;DHT22;6775;49.574;11.170;2022-12-13T00:41:38;-7.10;99.90
13409;DHT22;6775;49.574;11.170;2022-12-13T00:44:07;-7.00;99.90
13409;DHT22;6775;49.574;11.170;2022-12-13T00:46:37;-7.10;99.90
13409;DHT22;6775;49.574;11.170;2022-12-13T00:49:06;-7.10;99.90
13409;DHT22;6775;49.574;11.170;2022-12-13T00:51:34;-7.10;99.90
13409;DHT22;6775;49.574;11.170;2022-12-13T00:54:02;-7.10;99.90
13409;DHT22;6775;49.574;11.170;2022-12-13T00:56:32;-6.90;99.90
13409;DHT22;6775;49.574;11.170;2022-12-13T00:59:00;-6.70;99.90
13409;DHT22;6775;49.574;11.170;2022-12-13T01:01:30;-6.70;99.90
13409;DHT22;6775;49.574;11.170;2022-12-13T01:04:01;-6.70;99.90
13409;DHT22;6775;49.574;11.170;2022-12-13T01:06:33;-6.60;99.90
13409;DHT22;6775;49.574;11.170;2022-12-13T01:09:03;-6.60;99.90
13409;DHT22;6775;49.574;11.170;2022-12-13T01:11:31;-6.60;99.90
13409;DHT22;6775;49.574;11.170;2022-12-13T01:13:59;-6.80;99.90
13409;DHT22;6775;49.574;11.170;2022-12-13T01:16:27;-6.90;99.90
13409;DHT22;6775;49.574;11.170;2022-12-13T01:18:56;-6.90;99.90
13409;DHT22;6775;49.574;11.170;2022-12-13T01:21:25;-6.90;99.90
13409;DHT22;6775;49.574;11.170;2022-12-13T01:24:00;-6.90;99.90
13409;DHT22;6775;49.574;11.170;2022-12-13T01:26:29;-7.10;99.90
13409;DHT22;6775;49.574;11.170;2022-12-13T01:28:57;-7.20;99.90
13409;DHT22;6775;49.574;11.170;2022-12-13T01:31:25;-7.30;99.90
13409;DHT22;6775;49.574;11.170;2022-12-13T01:33:53;-7.20;99.90
13409;DHT22;6775;49.574;11.170;2022-12-13T01:36:22;-7.10;99.90
13409;DHT22;6775;49.574;11.170;2022-12-13T01:38:55;-7.10;99.90
13409;DHT22;6775;49.574;11.170;2022-12-13T01:41:26;-7.20;99.90
13409;DHT22;6775;49.574;11.170;2022-12-13T01:43:56;-7.20;99.90
13409;DHT22;6775;49.574;11.170;2022-12-13T01:46:26;-7.10;99.90
13409;DHT22;6775;49.574;11.170;2022-12-13T01:48:59;-7.20;99.90
13409;DHT22;6775;49.574;11.170;2022-12-13T01:51:33;-7.20;99.90
13409;DHT22;6775;49.574;11.170;2022-12-13T01:54:05;-7.20;99.90
13409;DHT22;6775;49.574;11.170;2022-12-13T01:56:40;-7.20;99.90
13409;DHT22;6775;49.574;11.170;2022-12-13T01:59:10;-7.00;99.90
13409;DHT22;6775;49.574;11.170;2022-12-13T02:01:39;-7.00;99.90
13409;DHT22;6775;49.574;11.170;2022-12-13T02:04:07;-7.00;99.90
13409;DHT22;6775;49.574;11.170;2022-12-13T02:06:37;-7.00;99.90
13409;DHT22;6775;49.574;11.170;2022-12-13T02:09:09;-7.10;99.90
13409;DHT22;6775;49.574;11.170;2022-12-13T02:11:40;-7.20;99.90
13409;DHT22;6775;49.574;11.170;2022-12-13T02:14:09;-7.40;99.90
13409;DHT22;6775;49.574;11.170;2022-12-13T02:16:51;-7.40;99.90
13409;DHT22;6775;49.574;11.170;2022-12-13T02:19:52;-7.50;99.90
13409;DHT22;6775;49.574;11.170;2022-12-13T02:22:47;-7.50;99.90
13409;DHT22;6775;49.574;11.170;2022-12-13T02:25:39;-7.50;99.90
13409;DHT22;6775;49.574;11.170;2022-12-13T02:28:27;-7.60;99.90
13409;DHT22;6775;49.574;11.170;2022-12-13T02:31:06;-7.70;99.90
13409;DHT22;6775;49.574;11.170;2022-12-13T02:33:44;-7.90;99.90
13409;DHT22;6775;49.574;11.170;2022-12-13T02:36:18;-8.10;99.90
13409;DHT22;6775;49.574;11.170;2022-12-13T02:38:52;-8.20;99.90
13409;DHT22;6775;49.574;11.170;2022-12-13T02:41:26;-8.20;99.90
13409;DHT22;6775;49.574;11.170;2022-12-13T02:44:05;-8.20;99.90
13409;DHT22;6775;49.574;11.170;2022-12-13T02:46:52;-8.10;99.90
13409;DHT22;6775;49.574;11.170;2022-12-13T02:49:23;-8.10;99.90
13409;DHT22;6775;49.574;11.170;2022-12-13T02:51:52;-7.90;99.90
13409;DHT22;6775;49.574;11.170;2022-12-13T02:54:22;-8.00;99.90
13409;DHT22;6775;49.574;11.170;2022-12-13T02:56:53;-8.00;99.90
13409;DHT22;6775;49.574;11.170;2022-12-13T02:59:29;-8.00;99.90
13409;DHT22;6775;49.574;11.170;2022-12-13T03:02:13;-7.80;99.90
13409;DHT22;6775;49.574;11.170;2022-12-13T03:05:03;-7.60;99.90
13409;DHT22;6775;49.574;11.170;2022-12-13T03:08:09;-7.40;99.90
13409;DHT22;6775;49.574;11.170;2022-12-13T03:10:50;-7.30;99.90
13409;DHT22;6775;49.574;11.170;2022-12-13T03:13:24;-7.30;99.90
13409;DHT22;6775;49.574;11.170;2022-12-13T03:16:12;-7.20;99.90
13409;DHT22;6775;49.574;11.170;2022-12-13T03:18:50;-7.10;99.90
13409;DHT22;6775;49.574;11.170;2022-12-13T03:21:19;-7.00;99.90
13409;DHT22;6775;49.574;11.170;2022-12-13T03:23:47;-7.10;99.90
13409;DHT22;6775;49.574;11.170;2022-12-13T03:26:17;-7.20;99.90
13409;DHT22;6775;49.574;11.170;2022-12-13T03:28:46;-7.30;99.90
13409;DHT22;6775;49.574;11.170;2022-12-13T03:31:15;-7.50;99.90
13409;DHT22;6775;49.574;11.170;2022-12-13T03:33:42;-7.60;99.90
13409;DHT22;6775;49.574;11.170;2022-12-13T03:36:13;-7.70;99.90
13409;DHT22;6775;49.574;11.170;2022-12-13T03:38:41;-7.80;99.90
13409;DHT22;6775;49.574;11.170;2022-12-13T03:41:12;-7.80;99.90
13409;DHT22;6775;49.574;11.170;2022-12-13T03:43:41;-7.70;99.90
13409;DHT22;6775;49.574;11.170;2022-12-13T03:46:09;-7.70;99.90
13409;DHT22;6775;49.574;11.170;2022-12-13T03:48:37;-7.70;99.90
13409;DHT22;6775;49.574;11.170;2022-12-13T03:51:05;-7.80;99.90
13409;DHT22;6775;49.574;11.170;2022-12-13T03:53:34;-8.00;99.90
13409;DHT22;6775;49.574;11.170;2022-12-13T03:56:04;-8.10;99.90
13409;DHT22;6775;49.574;11.170;2022-12-13T03:58:34;-8.20;99.90
13409;DHT22;6775;49.574;11.170;2022-12-13T04:01:05;-8.20;99.90
13409;DHT22;6775;49.574;11.170;2022-12-13T04:03:33;-8.10;99.90
13409;DHT22;6775;49.574;11.170;2022-12-13T04:06:01;-8.00;99.90
13409;DHT22;6775;49.574;11.170;2022-12-13T04:08:29;-7.90;99.90
13409;DHT22;6775;49.574;11.170;2022-12-13T04:10:59;-7.90;99.90
13409;DHT22;6775;49.574;11.170;2022-12-13T04:13:46;-7.80;99.90
13409;DHT22;6775;49.574;11.170;2022-12-13T04:16:13;-7.80;99.90
13409;DHT22;6775;49.574;11.170;2022-12-13T04:18:41;-7.80;99.90
13409;DHT22;6775;49.574;11.170;2022-12-13T04:21:09;-7.70;99.90
13409;DHT22;6775;49.574;11.170;2022-12-13T04:23:37;-7.70;99.90
13409;DHT22;6775;49.574;11.170;2022-12-13T04:26:06;-7.70;99.90
13409;DHT22;6775;49.574;11.170;2022-12-13T04:28:34;-7.70;99.90
13409;DHT22;6775;49.574;11.170;2022-12-13T04:31:02;-7.60;99.90
13409;DHT22;6775;49.574;11.170;2022-12-13T04:33:30;-7.40;99.90
13409;DHT22;6775;49.574;11.170;2022-12-13T04:35:58;-7.40;99.90
13409;DHT22;6775;49.574;11.170;2022-12-13T04:38:26;-7.40;99.90
13409;DHT22;6775;49.574;11.170;2022-12-13T04:41:03;-7.40;99.90
13409;DHT22;6775;49.574;11.170;2022-12-13T04:43:32;-7.40;99.90
13409;DHT22;6775;49.574;11.170;2022-12-13T04:46:00;-7.40;99.90
13409;DHT22;6775;49.574;11.170;2022-12-13T04:48:28;-7.50;99.90
13409;DHT22;6775;49.574;11.170;2022-12-13T04:50:57;-7.60;99.90
13409;DHT22;6775;49.574;11.170;2022-12-13T04:53:27;-7.60;99.90
13409;DHT22;6775;49.574;11.170;2022-12-13T04:55:55;-7.60;99.90
13409;DHT22;6775;49.574;11.170;2022-12-13T04:58:23;-7.40;99.90
13409;DHT22;6775;49.574;11.170;2022-12-13T05:00:52;-7.40;99.90
13409;DHT22;6775;49.574;11.170;2022-12-13T05:03:20;-7.40;99.90
13409;DHT22;6775;49.574;11.170;2022-12-13T05:05:48;-7.40;99.90
13409;DHT22;6775;49.574;11.170;2022-12-13T05:08:16;-7.30;99.90
13409;DHT22;6775;49.574;11.170;2022-12-13T05:10:44;-7.20;99.90
13409;DHT22;6775;49.574;11.170;2022-12-13T05:13:11;-7.10;99.90
13409;DHT22;6775;49.574;11.170;2022-12-13T05:15:39;-7.10;99.90
13409;DHT22;6775;49.574;11.170;2022-12-13T05:18:09;-7.00;99.90
13409;DHT22;6775;49.574;11.170;2022-12-13T05:20:38;-6.80;99.90
13409;DHT22;6775;49.574;11.170;2022-12-13T05:23:06;-6.70;99.90
13409;DHT22;6775;49.574;11.170;2022-12-13T05:25:34;-6.70;99.90
13409;DHT22;6775;49.574;11.170;2022-12-13T05:28:03;-6.80;99.90
13409;DHT22;6775;49.574;11.170;2022-12-13T05:30:51;-6.80;99.90
13409;DHT22;6775;49.574;11.170;2022-12-13T05:33:21;-6.60;99.90
13409;DHT22;6775;49.574;11.170;2022-12-13T05:35:49;-6.90;99.90
13409;DHT22;6775;49.574;11.170;2022-12-13T05:38:23;-7.00;99.90
13409;DHT22;6775;49.574;11.170;2022-12-13T05:40:51;-7.00;99.90
13409;DHT22;6775;49.574;11.170;2022-12-13T05:43:20;-7.00;99.90
13409;DHT22;6775;49.574;11.170;2022-12-13T05:46:07;-7.10;99.90
13409;DHT22;6775;49.574;11.170;2022-12-13T05:48:36;-7.30;99.90
13409;DHT22;6775;49.574;11.170;2022-12-13T05:51:04;-7.60;99.90
13409;DHT22;6775;49.574;11.170;2022-12-13T05:53:37;-8.00;99.90
13409;DHT22;6775;49.574;11.170;2022-12-13T05:56:06;-8.20;99.90
13409;DHT22;6775;49.574;11.170;2022-12-13T05:58:36;-8.40;99.90
13409;DHT22;6775;49.574;11.170;2022-12-13T06:01:05;-8.50;99.90
13409;DHT22;6775;49.574;11.170;2022-12-13T06:03:33;-8.70;99.90
13409;DHT22;6775;49.574;11.170;2022-12-13T06:06:04;-8.70;99.90
13409;DHT22;6775;49.574;11.170;2022-12-13T06:08:32;-8.90;99.90
13409;DHT22;6775;49.574;11.170;2022-12-13T06:11:02;-9.00;99.90
13409;DHT22;6775;49.574;11.170;2022-12-13T06:13:39;-9.10;99.90
13409;DHT22;6775;49.574;11.170;2022-12-13T06:16:09;-9.20;99.90
13409;DHT22;6775;49.574;11.170;2022-12-13T06:18:50;-9.10;99.90
13409;DHT22;6775;49.574;11.170;2022-12-13T06:21:30;-9.20;99.90
13409;DHT22;6775;49.574;11.170;2022-12-13T06:24:13;-9.00;99.90
13409;DHT22;6775;49.574;11.170;2022-12-13T06:26:41;-8.80;99.90
13409;DHT22;6775;49.574;11.170;2022-12-13T06:29:12;-8.70;99.90
13409;DHT22;6775;49.574;11.170;2022-12-13T06:31:52;-8.60;99.90
13409;DHT22;6775;49.574;11.170;2022-12-13T06:34:30;-8.40;99.90
13409;DHT22;6775;49.574;11.170;2022-12-13T06:37:00;-8.30;99.90
13409;DHT22;6775;49.574;11.170;2022-12-13T06:39:28;-8.20;99.90
13409;DHT22;6775;49.574;11.170;2022-12-13T06:41:59;-8.10;99.90
13409;DHT22;6775;49.574;11.170;2022-12-13T06:44:27;-8.20;99.90
13409;DHT22;6775;49.574;11.170;2022-12-13T06:46:55;-8.30;99.90
13409;DHT22;6775;49.574;11.170;2022-12-13T06:49:39;-8.30;99.90
13409;DHT22;6775;49.574;11.170;2022-12-13T06:52:10;-8.30;99.90
13409;DHT22;6775;49.574;11.170;2022-12-13T06:54:38;-8.30;99.90
13409;DHT22;6775;49.574;11.170;2022-12-13T06:57:06;-8.20;99.90
13409;DHT22;6775;49.574;11.170;2022-12-13T06:59:34;-8.20;99.90
13409;DHT22;6775;49.574;11.170;2022-12-13T07:02:02;-8.20;99.90
13409;DHT22;6775;49.574;11.170;2022-12-13T07:04:30;-8.40;99.90
13409;DHT22;6775;49.574;11.170;2022-12-13T07:06:59;-8.50;99.90
13409;DHT22;6775;49.574;11.170;2022-12-13T07:09:29;-8.50;99.90
13409;DHT22;6775;49.574;11.170;2022-12-13T07:11:58;-8.30;99.90
13409;DHT22;6775;49.574;11.170;2022-12-13T07:14:26;-8.00;99.90
13409;DHT22;6775;49.574;11.170;2022-12-13T07:16:54;-7.70;99.90
13409;DHT22;6775;49.574;11.170;2022-12-13T07:19:29;-7.50;99.90
13409;DHT22;6775;49.574;11.170;2022-12-13T07:22:01;-7.50;99.90
13409;DHT22;6775;49.574;11.170;2022-12-13T07:24:33;-7.50;99.90
13409;DHT22;6775;49.574;11.170;2022-12-13T07:27:01;-7.40;99.90
13409;DHT22;6775;49.574;11.170;2022-12-13T07:29:29;-7.10;99.90
13409;DHT22;6775;49.574;11.170;2022-12-13T07:31:57;-6.90;99.90
13409;DHT22;6775;49.574;11.170;2022-12-13T07:34:27;-6.80;99.90
13409;DHT22;6775;49.574;11.170;2022-12-13T07:36:55;-6.90;99.90
13409;DHT22;6775;49.574;11.170;2022-12-13T07:39:23;-7.10;99.90
13409;DHT22;6775;49.574;11.170;2022-12-13T07:41:54;-6.80;99.90
13409;DHT22;6775;49.574;11.170;2022-12-13T07:44:22;-6.70;99.90
13409;DHT22;6775;49.574;11.170;2022-12-13T07:46:50;-6.70;99.90
13409;DHT22;6775;49.574;11.170;2022-12-13T07:49:18;-6.60;99.90
13409;DHT22;6775;49.574;11.170;2022-12-13T07:51:46;-6.50;99.90
13409;DHT22;6775;49.574;11.170;2022-12-13T07:54:14;-6.50;99.90
13409;DHT22;6775;49.574;11.170;2022-12-13T07:56:42;-6.40;99.90
13409;DHT22;6775;49.574;11.170;2022-12-13T07:59:13;-6.40;99.90
13409;DHT22;6775;49.574;11.170;2022-12-13T08:01:40;-6.40;99.90
13409;DHT22;6775;49.574;11.170;2022-12-13T08:04:09;-6.40;99.90
13409;DHT22;6775;49.574;11.170;2022-12-13T08:06:37;-6.60;99.90
13409;DHT22;6775;49.574;11.170;2022-12-13T08:09:05;-6.90;99.90
13409;DHT22;6775;49.574;11.170;2022-12-13T08:11:33;-7.00;99.90
13409;DHT22;6775;49.574;11.170;2022-12-13T08:14:01;-6.90;99.90
13409;DHT22;6775;49.574;11.170;2022-12-13T08:16:30;-6.90;99.90
13409;DHT22;6775;49.574;11.170;2022-12-13T08:18:58;-6.90;99.90
13409;DHT22;6775;49.574;11.170;2022-12-13T08:21:34;-6.90;99.90
13409;DHT22;6775;49.574;11.170;2022-12-13T08:24:22;-6.80;99.90
13409;DHT22;6775;49.574;11.170;2022-12-13T08:26:50;-6.60;99.90
13409;DHT22;6775;49.574;11.170;2022-12-13T08:29:18;-6.40;99.90
13409;DHT22;6775;49.574;11.170;2022-12-13T08:31:59;-5.40;99.90
13409;DHT22;6775;49.574;11.170;2022-12-13T08:34:27;-3.40;99.90
13409;DHT22;6775;49.574;11.170;2022-12-13T08:36:55;-2.40;99.90
13409;DHT22;6775;49.574;11.170;2022-12-13T08:39:28;-1.70;99.90
13409;DHT22;6775;49.574;11.170;2022-12-13T08:42:01;-1.10;99.90
13409;DHT22;6775;49.574;11.170;2022-12-13T08:44:45;0.10;99.90
13409;DHT22;6775;49.574;11.170;2022-12-13T08:47:14;0.80;99.90
13409;DHT22;6775;49.574;11.170;2022-12-13T08:49:52;1.70;99.90
13409;DHT22;6775;49.574;11.170;2022-12-13T08:52:20;2.30;98.50
13409;DHT22;6775;49.574;11.170;2022-12-13T08:54:49;1.80;97.50
13409;DHT22;6775;49.574;11.170;2022-12-13T08:57:17;0.40;99.20
13409;DHT22;6775;49.574;11.170;2022-12-13T08:59:44;-0.80;99.90
13409;DHT22;6775;49.574;11.170;2022-12-13T09:02:14;-1.80;99.90
13409;DHT22;6775;49.574;11.170;2022-12-13T09:04:42;-2.60;99.90
13409;DHT22;6775;49.574;11.170;2022-12-13T09:07:10;-3.10;99.90
13409;DHT22;6775;49.574;11.170;2022-12-13T09:09:38;-3.40;99.90
13409;DHT22;6775;49.574;11.170;2022-12-13T09:12:06;-3.50;99.90
13409;DHT22;6775;49.574;11.170;2022-12-13T09:14:45;-3.70;99.90
13409;DHT22;6775;49.574;11.170;2022-12-13T09:17:14;-3.80;99.90
13409;DHT22;6775;49.574;11.170;2022-12-13T09:19:51;-3.80;99.90
13409;DHT22;6775;49.574;11.170;2022-12-13T09:22:24;-3.70;99.90
13409;DHT22;6775;49.574;11.170;2022-12-13T09:24:59;-3.70;99.90
13409;DHT22;6775;49.574;11.170;2022-12-13T09:27:28;-3.70;99.90
13409;DHT22;6775;49.574;11.170;2022-12-13T09:30:07;-3.70;99.90
13409;DHT22;6775;49.574;11.170;2022-12-13T09:32:40;-3.80;99.90
13409;DHT22;6775;49.574;11.170;2022-12-13T09:35:09;-3.80;99.90
13409;DHT22;6775;49.574;11.170;2022-12-13T09:37:36;-3.80;99.90
13409;DHT22;6775;49.574;11.170;2022-12-13T09:40:18;-3.70;99.90
13409;DHT22;6775;49.574;11.170;2022-12-13T09:42:54;-3.70;99.90
13409;DHT22;6775;49.574;11.170;2022-12-13T09:45:39;-3.70;99.90
13409;DHT22;6775;49.574;11.170;2022-12-13T09:48:15;-3.60;99.90
13409;DHT22;6775;49.574;11.170;2022-12-13T09:50:49;-3.50;99.90
13409;DHT22;6775;49.574;11.170;2022-12-13T09:53:38;-3.50;99.90
13409;DHT22;6775;49.574;11.170;2022-12-13T09:56:09;-3.40;99.90
13409;DHT22;6775;49.574;11.170;2022-12-13T09:58:38;-3.40;99.90
13409;DHT22;6775;49.574;11.170;2022-12-13T10:01:06;-3.40;99.90
13409;DHT22;6775;49.574;11.170;2022-12-13T10:03:35;-3.40;99.90
13409;DHT22;6775;49.574;11.170;2022-12-13T10:06:12;-3.40;99.90
13409;DHT22;6775;49.574;11.170;2022-12-13T10:08:51;-3.20;99.90
13409;DHT22;6775;49.574;11.170;2022-12-13T10:11:25;-3.20;99.90
13409;DHT22;6775;49.574;11.170;2022-12-13T10:14:01;-3.00;99.90
13409;DHT22;6775;49.574;11.170;2022-12-13T10:16:38;-2.90;99.90
13409;DHT22;6775;49.574;11.170;2022-12-13T10:19:15;-2.80;99.90
13409;DHT22;6775;49.574;11.170;2022-12-13T10:21:56;-2.90;99.90
13409;DHT22;6775;49.574;11.170;2022-12-13T10:24:30;-2.90;99.90
13409;DHT22;6775;49.574;11.170;2022-12-13T10:27:15;-2.90;99.90
13409;DHT22;6775;49.574;11.170;2022-12-13T10:30:01;-2.80;99.90
13409;DHT22;6775;49.574;11.170;2022-12-13T10:32:30;-2.70;99.90
13409;DHT22;6775;49.574;11.170;2022-12-13T10:35:20;-2.60;99.90
13409;DHT22;6775;49.574;11.170;2022-12-13T10:37:48;-2.60;99.90
13409;DHT22;6775;49.574;11.170;2022-12-13T10:40:27;-2.50;99.90
13409;DHT22;6775;49.574;11.170;2022-12-13T10:43:12;-2.60;99.90
13409;DHT22;6775;49.574;11.170;2022-12-13T10:45:40;-2.60;99.90
13409;DHT22;6775;49.574;11.170;2022-12-13T10:48:18;-2.70;99.90
13409;DHT22;6775;49.574;11.170;2022-12-13T10:51:00;-2.80;99.90
13409;DHT22;6775;49.574;11.170;2022-12-13T10:53:31;-2.80;99.90
13409;DHT22;6775;49.574;11.170;2022-12-13T10:56:00;-2.90;99.90
13409;DHT22;6775;49.574;11.170;2022-12-13T10:58:37;-2.90;99.90
13409;DHT22;6775;49.574;11.170;2022-12-13T11:01:20;-2.90;99.90
13409;DHT22;6775;49.574;11.170;2022-12-13T11:03:56;-2.90;99.90
13409;DHT22;6775;49.574;11.170;2022-12-13T11:06:41;-2.90;99.90
13409;DHT22;6775;49.574;11.170;2022-12-13T11:09:13;-2.90;99.90
13409;DHT22;6775;49.574;11.170;2022-12-13T11:11:50;-2.90;99.90
13409;DHT22;6775;49.574;11.170;2022-12-13T11:14:26;-2.90;99.90
13409;DHT22;6775;49.574;11.170;2022-12-13T11:17:00;-2.80;99.90
13409;DHT22;6775;49.574;11.170;2022-12-13T11:19:36;-2.80;99.90
13409;DHT22;6775;49.574;11.170;2022-12-13T11:22:07;-2.80;99.90
13409;DHT22;6775;49.574;11.170;2022-12-13T11:24:37;-2.80;99.90
13409;DHT22;6775;49.574;11.170;2022-12-13T11:27:25;-2.80;99.90
13409;DHT22;6775;49.574;11.170;2022-12-13T11:30:09;-2.70;99.90
13409;DHT22;6775;49.574;11.170;2022-12-13T11:33:01;-2.50;99.90
13409;DHT22;6775;49.574;11.170;2022-12-13T11:35:39;-2.50;99.90
13409;DHT22;6775;49.574;11.170;2022-12-13T11:38:20;-2.40;99.90
13409;DHT22;6775;49.574;11.170;2022-12-13T11:40:55;-2.40;99.90
13409;DHT22;6775;49.574;11.170;2022-12-13T11:43:28;-2.30;99.90
13409;DHT22;6775;49.574;11.170;2022-12-13T11:46:01;-2.20;99.90
13409;DHT22;6775;49.574;11.170;2022-12-13T11:48:38;-2.20;99.90
13409;DHT22;6775;49.574;11.170;2022-12-13T11:51:08;-2.10;99.90
13409;DHT22;6775;49.574;11.170;2022-12-13T11:53:47;-2.10;99.90
13409;DHT22;6775;49.574;11.170;2022-12-13T11:56:21;-2.00;99.90
13409;DHT22;6775;49.574;11.170;2022-12-13T11:58:57;-1.90;99.90
13409;DHT22;6775;49.574;11.170;2022-12-13T12:01:36;-1.70;99.90
13409;DHT22;6775;49.574;11.170;2022-12-13T12:04:15;-0.80;99.90
13409;DHT22;6775;49.574;11.170;2022-12-13T12:06:49;0.70;99.90
13409;DHT22;6775;49.574;11.170;2022-12-13T12:09:22;2.00;99.90
13409;DHT22;6775;49.574;11.170;2022-12-13T12:11:54;3.50;99.90
13409;DHT22;6775;49.574;11.170;2022-12-13T12:14:34;5.20;99.90
13409;DHT22;6775;49.574;11.170;2022-12-13T12:17:03;6.90;98.90
13409;DHT22;6775;49.574;11.170;2022-12-13T12:19:35;8.30;94.50
13409;DHT22;6775;49.574;11.170;2022-12-13T12:22:14;8.80;90.80
13409;DHT22;6775;49.574;11.170;2022-12-13T12:24:57;8.70;86.70
13409;DHT22;6775;49.574;11.170;2022-12-13T12:27:34;8.30;83.10
13409;DHT22;6775;49.574;11.170;2022-12-13T12:30:10;8.00;84.10
13409;DHT22;6775;49.574;11.170;2022-12-13T12:32:52;7.60;82.00
13409;DHT22;6775;49.574;11.170;2022-12-13T12:35:32;7.20;82.80
13409;DHT22;6775;49.574;11.170;2022-12-13T12:38:24;6.90;81.50
13409;DHT22;6775;49.574;11.170;2022-12-13T12:41:07;6.00;84.30
13409;DHT22;6775;49.574;11.170;2022-12-13T12:43:43;5.60;85.90
13409;DHT22;6775;49.574;11.170;2022-12-13T12:46:30;5.30;86.50
13409;DHT22;6775;49.574;11.170;2022-12-13T12:52:35;6.10;86.10
13409;DHT22;6775;49.574;11.170;2022-12-13T12:55:13;7.30;82.30
13409;DHT22;6775;49.574;11.170;2022-12-13T12:57:56;7.50;81.20
13409;DHT22;6775;49.574;11.170;2022-12-13T13:00:29;6.70;79.00
13409;DHT22;6775;49.574;11.170;2022-12-13T13:03:08;5.10;82.00
13409;DHT22;6775;49.574;11.170;2022-12-13T13:05:50;3.50;87.30
13409;DHT22;6775;49.574;11.170;2022-12-13T13:08:31;2.20;91.10
13409;DHT22;6775;49.574;11.170;2022-12-13T13:11:01;1.40;93.60
13409;DHT22;6775;49.574;11.170;2022-12-13T13:13:35;0.80;95.50
13409;DHT22;6775;49.574;11.170;2022-12-13T13:16:30;0.60;96.90
13409;DHT22;6775;49.574;11.170;2022-12-13T13:18:59;0.40;97.80
13409;DHT22;6775;49.574;11.170;2022-12-13T13:21:44;0.10;99.10
13409;DHT22;6775;49.574;11.170;2022-12-13T13:24:18;-0.20;99.90
13409;DHT22;6775;49.574;11.170;2022-12-13T13:26:47;-0.40;99.90
13409;DHT22;6775;49.574;11.170;2022-12-13T13:29:32;-0.60;99.90
13409;DHT22;6775;49.574;11.170;2022-12-13T13:32:03;-0.70;99.90
13409;DHT22;6775;49.574;11.170;2022-12-13T13:34:34;-0.90;99.90
13409;DHT22;6775;49.574;11.170;2022-12-13T13:37:03;-0.90;99.90
13409;DHT22;6775;49.574;11.170;2022-12-13T13:39:56;-1.00;99.90
13409;DHT22;6775;49.574;11.170;2022-12-13T13:42:25;-1.10;99.90
13409;DHT22;6775;49.574;11.170;2022-12-13T13:45:19;-1.20;99.90
13409;DHT22;6775;49.574;11.170;2022-12-13T13:48:01;-1.20;99.90
13409;DHT22;6775;49.574;11.170;2022-12-13T14:00:54;-1.70;99.90
13409;DHT22;6775;49.574;11.170;2022-12-13T14:03:53;-1.90;99.90
13409;DHT22;6775;49.574;11.170;2022-12-13T14:09:49;-2.00;99.90
13409;DHT22;6775;49.574;11.170;2022-12-13T14:16:23;-2.10;99.90
13409;DHT22;6775;49.574;11.170;2022-12-13T14:22:21;-2.30;99.90
13409;DHT22;6775;49.574;11.170;2022-12-13T14:25:00;-2.40;99.90
13409;DHT22;6775;49.574;11.170;2022-12-13T14:27:38;-2.40;99.90
13409;DHT22;6775;49.574;11.170;2022-12-13T14:30:11;-2.40;99.90
13409;DHT22;6775;49.574;11.170;2022-12-13T14:32:56;-2.40;99.90
13409;DHT22;6775;49.574;11.170;2022-12-13T14:35:26;-2.50;99.90
13409;DHT22;6775;49.574;11.170;2022-12-13T14:37:55;-2.50;99.90
13409;DHT22;6775;49.574;11.170;2022-12-13T14:40:27;-2.40;99.90
13409;DHT22;6775;49.574;11.170;2022-12-13T14:42:56;-2.40;99.90
13409;DHT22;6775;49.574;11.170;2022-12-13T14:45:25;-2.40;99.90
13409;DHT22;6775;49.574;11.170;2022-12-13T14:47:58;-2.40;99.90
13409;DHT22;6775;49.574;11.170;2022-12-13T14:50:28;-2.40;99.90
13409;DHT22;6775;49.574;11.170;2022-12-13T14:52:58;-2.50;99.90
13409;DHT22;6775;49.574;11.170;2022-12-13T14:55:29;-2.50;99.90
13409;DHT22;6775;49.574;11.170;2022-12-13T14:57:59;-2.50;99.90
13409;DHT22;6775;49.574;11.170;2022-12-13T15:00:30;-2.50;99.90
13409;DHT22;6775;49.574;11.170;2022-12-13T15:03:02;-2.50;99.90
13409;DHT22;6775;49.574;11.170;2022-12-13T15:05:36;-2.50;99.90
13409;DHT22;6775;49.574;11.170;2022-12-13T15:08:08;-2.60;99.90
13409;DHT22;6775;49.574;11.170;2022-12-13T15:10:39;-2.60;99.90
13409;DHT22;6775;49.574;11.170;2022-12-13T15:13:22;-2.60;99.90
13409;DHT22;6775;49.574;11.170;2022-12-13T15:15:57;-2.50;99.90
13409;DHT22;6775;49.574;11.170;2022-12-13T15:18:28;-2.50;99.90
13409;DHT22;6775;49.574;11.170;2022-12-13T15:20:57;-2.50;99.90
13409;DHT22;6775;49.574;11.170;2022-12-13T15:23:28;-2.60;99.90
13409;DHT22;6775;49.574;11.170;2022-12-13T15:25:59;-2.80;99.90
13409;DHT22;6775;49.574;11.170;2022-12-13T15:28:30;-2.90;99.90
13409;DHT22;6775;49.574;11.170;2022-12-13T15:30:59;-2.90;99.90
13409;DHT22;6775;49.574;11.170;2022-12-13T15:33:29;-3.00;99.90
13409;DHT22;6775;49.574;11.170;2022-12-13T15:36:07;-3.00;99.90
13409;DHT22;6775;49.574;11.170;2022-12-13T15:38:39;-3.00;99.90
13409;DHT22;6775;49.574;11.170;2022-12-13T15:41:14;-3.00;99.90
13409;DHT22;6775;49.574;11.170;2022-12-13T15:43:46;-3.00;99.90
13409;DHT22;6775;49.574;11.170;2022-12-13T15:46:23;-3.10;99.90
13409;DHT22;6775;49.574;11.170;2022-12-13T15:48:53;-3.20;99.90
13409;DHT22;6775;49.574;11.170;2022-12-13T15:51:22;-3.20;99.90
13409;DHT22;6775;49.574;11.170;2022-12-13T15:54:04;-3.20;99.90
13409;DHT22;6775;49.574;11.170;2022-12-13T15:56:34;-3.30;99.90
13409;DHT22;6775;49.574;11.170;2022-12-13T15:59:04;-3.40;99.90
13409;DHT22;6775;49.574;11.170;2022-12-13T16:01:35;-3.60;99.90
13409;DHT22;6775;49.574;11.170;2022-12-13T16:04:05;-3.90;99.90
13409;DHT22;6775;49.574;11.170;2022-12-13T16:06:33;-4.00;99.90
13409;DHT22;6775;49.574;11.170;2022-12-13T16:09:03;-4.10;99.90
13409;DHT22;6775;49.574;11.170;2022-12-13T16:11:36;-4.20;99.90
13409;DHT22;6775;49.574;11.170;2022-12-13T16:14:35;-4.20;99.90
13409;DHT22;6775;49.574;11.170;2022-12-13T16:17:20;-4.20;99.90
13409;DHT22;6775;49.574;11.170;2022-12-13T16:19:51;-4.20;99.90
13409;DHT22;6775;49.574;11.170;2022-12-13T16:22:19;-4.20;99.90
13409;DHT22;6775;49.574;11.170;2022-12-13T16:24:50;-4.30;99.90
13409;DHT22;6775;49.574;11.170;2022-12-13T16:27:18;-4.30;99.90
13409;DHT22;6775;49.574;11.170;2022-12-13T16:29:46;-4.30;99.90
13409;DHT22;6775;49.574;11.170;2022-12-13T16:32:14;-4.20;99.90
13409;DHT22;6775;49.574;11.170;2022-12-13T16:34:41;-4.20;99.90